« Back
NWS Peachtree City, Ga » Text Product » ATL Terminal Aerodrome Forecast

Printer-friendly Version
Current Version              Previous Versions:   1  2  3  4  5  6  7  8  9  

Terminal Aerodrome Forecast

FTUS42 KFFC 081720
KATL 081720Z 0818/0924 17005KT P6SM FEW050
     FM090000 14004KT P6SM SCT250
     FM091000 17003KT P6SM SCT020
     FM091500 23005KT P6SM SCT035
     FM091800 26007KT P6SM SCT050 BKN100=

USA.gov is the U.S. government's official web portal to all federal, state and local government web resources and services.